createdAt,value
2023-04-17T00:00:37.374Z,13.91
2023-04-17T00:03:06.100Z,13.92
2023-04-17T00:05:34.642Z,13.95
2023-04-17T00:08:03.403Z,13.96
2023-04-17T00:10:33.230Z,13.98
2023-04-17T00:13:01.606Z,14.00
2023-04-17T00:15:30.347Z,14.00
2023-04-17T00:17:58.867Z,14.00
2023-04-17T00:20:27.215Z,13.98
2023-04-17T00:22:55.558Z,13.95
2023-04-17T00:25:24.316Z,13.94
2023-04-17T00:27:54.194Z,13.93
2023-04-17T00:30:23.193Z,13.91
2023-04-17T00:32:51.538Z,13.93
2023-04-17T00:35:20.103Z,13.94
2023-04-17T00:37:49.770Z,13.95
2023-04-17T00:40:18.508Z,13.97
2023-04-17T00:42:52.952Z,13.98
2023-04-17T00:45:23.468Z,14.00
2023-04-17T00:47:53.022Z,14.02
2023-04-17T00:50:21.780Z,14.03
2023-04-17T00:52:51.005Z,14.04
2023-04-17T00:55:20.076Z,14.03
2023-04-17T00:57:49.712Z,14.04
2023-04-17T01:00:18.881Z,14.03
2023-04-17T01:02:48.781Z,14.03
2023-04-17T01:05:17.629Z,14.04
2023-04-17T01:07:47.548Z,14.05
2023-04-17T01:10:16.041Z,14.04
2023-04-17T01:12:46.899Z,14.06
2023-04-17T01:15:15.720Z,14.08
2023-04-17T01:17:44.137Z,14.09
2023-04-17T01:20:14.788Z,14.10
2023-04-17T01:22:43.115Z,14.13
2023-04-17T01:25:13.034Z,14.12
2023-04-17T01:27:42.429Z,14.13
2023-04-17T01:30:12.392Z,14.13
2023-04-17T01:32:41.503Z,14.13
2023-04-17T01:35:11.347Z,14.12
2023-04-17T01:37:39.738Z,14.11
2023-04-17T01:40:10.154Z,14.09
2023-04-17T01:42:39.960Z,14.06
2023-04-17T01:45:09.973Z,14.04
2023-04-17T01:47:38.425Z,14.02
2023-04-17T01:50:09.944Z,13.96
2023-04-17T01:52:39.917Z,13.99
2023-04-17T01:55:09.151Z,13.95
2023-04-17T01:57:37.540Z,13.94
2023-04-17T02:00:11.235Z,13.94
2023-04-17T02:02:39.750Z,13.94
2023-04-17T02:05:09.241Z,13.95
2023-04-17T02:07:38.026Z,13.96
2023-04-17T02:10:07.801Z,13.96
2023-04-17T02:12:36.181Z,14.03
2023-04-17T02:15:06.566Z,14.05
2023-04-17T02:17:34.958Z,14.11
2023-04-17T02:20:07.328Z,14.12
2023-04-17T02:22:35.719Z,14.18
2023-04-17T02:25:04.189Z,14.20
2023-04-17T02:27:32.564Z,14.22
2023-04-17T02:30:02.388Z,14.23
2023-04-17T02:32:32.185Z,14.24
2023-04-17T02:35:00.627Z,14.24
2023-04-17T02:37:29.035Z,14.25
2023-04-17T02:39:58.063Z,14.23
2023-04-17T02:42:26.441Z,14.22
2023-04-17T02:44:54.975Z,14.22
2023-04-17T02:47:23.572Z,14.23
2023-04-17T02:49:55.037Z,14.21
2023-04-17T02:52:23.499Z,14.21
2023-04-17T02:54:52.062Z,14.20
2023-04-17T02:57:20.527Z,14.18
2023-04-17T02:59:49.139Z,14.17
2023-04-17T03:02:21.979Z,14.16
2023-04-17T03:04:52.861Z,14.16
2023-04-17T03:07:23.794Z,14.15
2023-04-17T03:09:54.072Z,14.12
2023-04-17T03:12:22.439Z,14.13
2023-04-17T03:14:51.186Z,14.09
2023-04-17T03:17:21.003Z,14.09
2023-04-17T03:19:49.436Z,14.07
2023-04-17T03:22:19.194Z,14.07
2023-04-17T03:24:47.592Z,14.06
2023-04-17T03:27:15.949Z,14.07
2023-04-17T03:29:44.384Z,14.08
2023-04-17T03:32:12.856Z,14.09
2023-04-17T03:34:41.327Z,14.10
2023-04-17T03:37:09.690Z,14.10
2023-04-17T03:39:39.408Z,14.09
2023-04-17T03:42:08.098Z,14.11
2023-04-17T03:44:36.726Z,14.09
2023-04-17T03:47:05.218Z,14.08
2023-04-17T03:49:33.628Z,14.08
2023-04-17T03:52:03.780Z,14.10
2023-04-17T03:54:35.622Z,14.09
2023-04-17T03:57:06.149Z,14.09
2023-04-17T03:59:34.562Z,14.08
2023-04-17T04:02:03.272Z,14.08
2023-04-17T04:04:31.824Z,14.11
2023-04-17T04:07:01.590Z,14.11
2023-04-17T04:09:29.932Z,14.12
2023-04-17T04:11:58.507Z,14.10
2023-04-17T04:14:28.253Z,14.09
2023-04-17T04:16:56.555Z,14.09
2023-04-17T04:19:24.954Z,14.08
2023-04-17T04:21:54.389Z,14.06
2023-04-17T04:24:23.753Z,14.03
2023-04-17T04:26:52.321Z,14.03
2023-04-17T04:29:25.721Z,14.01
2023-04-17T04:31:55.672Z,14.00
2023-04-17T04:34:25.866Z,14.02
2023-04-17T04:36:54.323Z,14.02
2023-04-17T04:39:22.671Z,14.04
2023-04-17T04:41:52.024Z,14.05
2023-04-17T04:44:21.157Z,14.08
2023-04-17T04:46:49.531Z,14.13
2023-04-17T04:49:19.555Z,14.19
2023-04-17T04:51:48.010Z,14.25
2023-04-17T04:54:16.416Z,14.28
2023-04-17T04:56:46.055Z,14.32
2023-04-17T04:59:14.393Z,14.37
2023-04-17T05:01:44.745Z,14.43
2023-04-17T05:04:13.325Z,14.48
2023-04-17T05:06:43.082Z,14.53
2023-04-17T05:09:11.738Z,14.62
2023-04-17T05:11:40.518Z,14.67
2023-04-17T05:14:09.043Z,14.73
2023-04-17T05:16:37.480Z,14.77
2023-04-17T05:19:06.029Z,14.83
2023-04-17T05:21:34.491Z,14.90
2023-04-17T05:24:04.469Z,14.96
2023-04-17T05:26:32.797Z,15.02
2023-04-17T05:29:01.552Z,15.08
2023-04-17T05:31:30.011Z,15.12
2023-04-17T05:33:58.408Z,15.17
2023-04-17T05:36:27.130Z,15.21
2023-04-17T05:38:56.949Z,15.26
2023-04-17T05:41:27.981Z,15.31
2023-04-17T05:43:56.370Z,15.35
2023-04-17T05:46:24.751Z,15.39
2023-04-17T05:48:53.224Z,15.45
2023-04-17T05:51:21.819Z,15.53
2023-04-17T05:53:50.159Z,15.58
2023-04-17T05:56:18.519Z,15.61
2023-04-17T05:58:48.269Z,15.64
2023-04-17T06:01:17.777Z,15.67
2023-04-17T06:03:46.649Z,15.70
2023-04-17T06:06:15.199Z,15.74
2023-04-17T06:08:43.550Z,15.79
2023-04-17T06:11:11.983Z,15.84
2023-04-17T06:13:40.461Z,15.90
2023-04-17T06:16:10.650Z,16.00
2023-04-17T06:18:39.011Z,16.14
2023-04-17T06:21:08.819Z,16.29
2023-04-17T06:23:37.244Z,16.47
2023-04-17T06:26:05.769Z,16.61
2023-04-17T06:28:34.636Z,16.70
2023-04-17T06:31:03.404Z,16.79
2023-04-17T06:33:33.261Z,16.85
2023-04-17T06:36:01.614Z,16.90
2023-04-17T06:38:30.043Z,16.91
2023-04-17T06:40:58.537Z,16.89
2023-04-17T06:43:28.419Z,16.86
2023-04-17T06:45:56.901Z,16.80
2023-04-17T06:48:25.493Z,16.80
2023-04-17T06:50:55.271Z,16.76
2023-04-17T06:53:23.643Z,16.73
2023-04-17T06:55:52.214Z,16.73
2023-04-17T06:58:20.534Z,16.73
2023-04-17T07:00:49.119Z,16.76
2023-04-17T07:03:17.639Z,16.83
2023-04-17T07:05:46.621Z,16.93
2023-04-17T07:08:18.498Z,16.98
2023-04-17T07:10:46.809Z,17.01
2023-04-17T07:13:15.129Z,17.05
2023-04-17T07:15:43.690Z,17.10
2023-04-17T07:18:12.176Z,17.15
2023-04-17T07:20:40.481Z,17.21
2023-04-17T07:23:08.860Z,17.27
2023-04-17T07:25:38.698Z,17.31
2023-04-17T07:28:07.750Z,17.39
2023-04-17T07:30:36.196Z,17.45
2023-04-17T07:33:04.738Z,17.53
2023-04-17T07:35:33.186Z,17.63
2023-04-17T07:38:03.803Z,17.72
2023-04-17T07:40:33.498Z,17.75
2023-04-17T07:43:03.317Z,17.81
2023-04-17T07:45:33.514Z,17.86
2023-04-17T07:48:01.901Z,17.89
2023-04-17T07:50:30.561Z,17.92
2023-04-17T07:52:59.552Z,18.03
2023-04-17T07:55:27.885Z,18.13
2023-04-17T07:57:56.633Z,18.20
2023-04-17T08:00:26.396Z,18.25
2023-04-17T08:02:54.984Z,18.33
2023-04-17T08:05:24.227Z,18.43
2023-04-17T08:07:52.784Z,18.51
2023-04-17T08:10:21.363Z,18.60
2023-04-17T08:12:49.742Z,18.68
2023-04-17T08:15:18.317Z,18.78
2023-04-17T08:17:48.258Z,18.84
2023-04-17T08:20:18.271Z,18.91
2023-04-17T08:22:47.745Z,18.97
2023-04-17T08:25:16.364Z,19.02
2023-04-17T08:27:45.191Z,19.09
2023-04-17T08:30:18.823Z,19.16
2023-04-17T08:32:50.840Z,19.20
2023-04-17T08:35:20.888Z,19.25
2023-04-17T08:37:49.403Z,19.27
2023-04-17T08:40:18.875Z,19.29
2023-04-17T08:42:48.304Z,19.34
2023-04-17T08:45:17.628Z,19.43
2023-04-17T08:47:46.120Z,19.52
2023-04-17T08:50:18.044Z,19.52
2023-04-17T08:52:49.580Z,19.59
2023-04-17T08:55:20.712Z,19.67
2023-04-17T08:58:00.982Z,19.73
2023-04-17T09:00:31.230Z,19.79
2023-04-17T09:03:02.738Z,19.80
2023-04-17T09:05:34.233Z,19.81
2023-04-17T09:08:12.351Z,19.84
2023-04-17T09:10:43.007Z,19.90
2023-04-17T09:13:14.599Z,19.94
2023-04-17T09:15:44.612Z,20.00
2023-04-17T09:18:26.794Z,20.05
2023-04-17T09:20:57.709Z,20.16
2023-04-17T09:23:27.163Z,20.30
2023-04-17T09:26:09.481Z,20.41
2023-04-17T09:28:40.045Z,20.51
2023-04-17T09:31:26.270Z,20.48
2023-04-17T09:33:59.589Z,20.50
2023-04-17T09:36:31.614Z,20.50
2023-04-17T09:39:01.116Z,20.51
2023-04-17T09:41:31.811Z,20.52
2023-04-17T09:44:05.357Z,20.53
2023-04-17T09:46:39.331Z,20.52
2023-04-17T09:49:15.196Z,20.54
2023-04-17T09:51:45.007Z,20.55
2023-04-17T09:54:15.383Z,20.59
2023-04-17T09:56:44.658Z,20.62
2023-04-17T09:59:13.495Z,20.66
2023-04-17T10:01:42.365Z,20.72
2023-04-17T10:04:11.934Z,20.80
2023-04-17T10:06:41.688Z,20.90
2023-04-17T10:09:11.560Z,21.10
2023-04-17T10:11:43.493Z,21.27
2023-04-17T10:14:16.796Z,21.37
2023-04-17T10:16:47.219Z,21.49
2023-04-17T10:19:35.681Z,21.58
2023-04-17T10:22:41.115Z,21.71
2023-04-17T10:25:29.887Z,21.82
2023-04-17T10:28:02.075Z,21.93
2023-04-17T10:30:54.483Z,21.94
2023-04-17T10:33:27.480Z,21.99
2023-04-17T10:35:56.157Z,22.02
2023-04-17T10:38:36.743Z,22.06
2023-04-17T10:41:11.351Z,22.20
2023-04-17T10:43:45.971Z,22.40
2023-04-17T10:46:15.611Z,22.66
2023-04-17T10:48:49.835Z,22.96
2023-04-17T10:51:44.029Z,23.28
2023-04-17T10:54:15.686Z,23.62
2023-04-17T10:56:48.376Z,23.97
2023-04-17T10:59:18.918Z,24.26
2023-04-17T11:02:04.622Z,24.58
2023-04-17T11:04:34.665Z,24.91
2023-04-17T11:07:03.297Z,25.25
2023-04-17T11:09:31.718Z,25.44
2023-04-17T11:12:02.934Z,25.58
2023-04-17T11:14:32.383Z,25.75
2023-04-17T11:17:02.210Z,25.92
2023-04-17T11:19:30.904Z,26.11
2023-04-17T11:22:01.480Z,26.37
2023-04-17T11:24:32.308Z,26.65
2023-04-17T11:27:03.413Z,26.87
2023-04-17T11:29:31.973Z,27.08
2023-04-17T11:32:01.300Z,27.12
2023-04-17T11:34:30.342Z,27.27
2023-04-17T11:37:00.862Z,27.54
2023-04-17T11:39:32.571Z,27.93
2023-04-17T11:42:03.883Z,28.28
2023-04-17T11:44:32.334Z,28.55
2023-04-17T11:47:00.861Z,28.76
2023-04-17T11:49:30.915Z,29.00
2023-04-17T11:52:02.950Z,29.33
2023-04-17T11:54:32.980Z,29.61
2023-04-17T11:57:05.139Z,29.70
2023-04-17T11:59:34.999Z,29.79
2023-04-17T12:02:04.258Z,29.83
2023-04-17T12:04:34.897Z,29.68
2023-04-17T12:07:05.023Z,29.67
2023-04-17T12:09:34.053Z,29.76
2023-04-17T12:12:07.170Z,29.86
2023-04-17T12:14:35.891Z,30.08
2023-04-17T12:17:04.275Z,30.27
2023-04-17T12:19:33.788Z,30.35
2023-04-17T12:22:02.184Z,30.53
2023-04-17T12:24:30.657Z,30.78
2023-04-17T12:27:01.877Z,31.01
2023-04-17T12:29:43.178Z,31.42
2023-04-17T12:32:12.983Z,31.68
2023-04-17T12:34:41.740Z,31.73
2023-04-17T12:37:10.197Z,31.90
2023-04-17T12:39:38.543Z,32.00
2023-04-17T12:42:06.997Z,32.04
2023-04-17T12:44:36.735Z,32.16
2023-04-17T12:47:05.215Z,32.39
2023-04-17T12:49:33.637Z,32.45
2023-04-17T12:52:03.693Z,32.49
2023-04-17T12:54:33.061Z,32.56
2023-04-17T12:57:02.820Z,32.36
2023-04-17T12:59:31.256Z,32.33
2023-04-17T13:02:01.060Z,32.58
2023-04-17T13:04:29.604Z,32.97
2023-04-17T13:06:58.124Z,33.24
2023-04-17T13:09:26.502Z,33.41
2023-04-17T13:11:54.863Z,33.00
2023-04-17T13:14:23.325Z,32.24
2023-04-17T13:16:51.813Z,31.37
2023-04-17T13:19:21.630Z,30.45
2023-04-17T13:21:52.058Z,29.54
2023-04-17T13:24:20.498Z,29.15
2023-04-17T13:26:48.893Z,29.28
2023-04-17T13:29:19.460Z,29.34
2023-04-17T13:31:48.602Z,29.06
2023-04-17T13:34:17.208Z,28.56
2023-04-17T13:36:47.107Z,28.02
2023-04-17T13:39:15.730Z,27.43
2023-04-17T13:41:44.175Z,27.07
2023-04-17T13:44:13.675Z,26.91
2023-04-17T13:46:42.370Z,26.92
2023-04-17T13:49:10.929Z,27.38
2023-04-17T13:51:39.528Z,28.01
2023-04-17T13:54:09.982Z,28.66
2023-04-17T13:56:38.774Z,29.28
2023-04-17T13:59:07.385Z,29.80
2023-04-17T14:01:36.052Z,30.27
2023-04-17T14:04:04.798Z,30.71
2023-04-17T14:06:34.785Z,30.59
2023-04-17T14:09:03.264Z,30.20
2023-04-17T14:11:33.077Z,30.18
2023-04-17T14:14:01.667Z,30.28
2023-04-17T14:16:30.342Z,30.53
2023-04-17T14:19:06.388Z,30.81
2023-04-17T14:21:41.747Z,30.88
2023-04-17T14:24:10.753Z,30.57
2023-04-17T14:26:41.311Z,29.75
2023-04-17T14:29:10.849Z,28.86
2023-04-17T14:31:39.573Z,27.99
2023-04-17T14:34:08.547Z,27.35
2023-04-17T14:36:37.069Z,26.80
2023-04-17T14:39:05.497Z,26.82
2023-04-17T14:41:34.897Z,27.08
2023-04-17T14:44:04.968Z,27.49
2023-04-17T14:46:33.506Z,27.94
2023-04-17T14:49:01.979Z,28.19
2023-04-17T14:51:30.863Z,27.99
2023-04-17T14:53:59.453Z,27.57
2023-04-17T14:56:27.936Z,27.07
2023-04-17T14:58:56.337Z,26.55
2023-04-17T15:01:26.173Z,26.06
2023-04-17T15:03:54.948Z,25.71
2023-04-17T15:06:23.550Z,25.47
2023-04-17T15:08:52.009Z,25.14
2023-04-17T15:11:21.053Z,24.84
2023-04-17T15:13:49.552Z,24.56
2023-04-17T15:16:18.088Z,24.31
2023-04-17T15:18:48.084Z,24.13
2023-04-17T15:21:17.483Z,23.96
2023-04-17T15:23:46.076Z,23.75
2023-04-17T15:26:14.992Z,23.49
2023-04-17T15:28:43.438Z,23.27
2023-04-17T15:31:11.836Z,23.07
2023-04-17T15:33:40.621Z,22.87
2023-04-17T15:36:10.482Z,22.72
2023-04-17T15:38:38.904Z,22.67
2023-04-17T15:41:08.756Z,22.72
2023-04-17T15:43:38.877Z,22.76
2023-04-17T15:46:07.820Z,22.70
2023-04-17T15:48:36.414Z,22.62
2023-04-17T15:51:05.074Z,22.53
2023-04-17T15:53:34.971Z,22.45
2023-04-17T15:56:03.416Z,22.44
2023-04-17T15:58:31.818Z,22.39
2023-04-17T16:01:00.255Z,22.32
2023-04-17T16:03:28.814Z,22.28
2023-04-17T16:05:57.284Z,22.20
2023-04-17T16:08:25.760Z,22.16
2023-04-17T16:10:55.536Z,22.07
2023-04-17T16:13:23.979Z,21.99
2023-04-17T16:15:52.396Z,21.86
2023-04-17T16:18:20.895Z,21.74
2023-04-17T16:20:49.349Z,21.64
2023-04-17T16:23:18.061Z,21.55
2023-04-17T16:25:46.557Z,21.48
2023-04-17T16:28:16.388Z,21.43
2023-04-17T16:30:44.872Z,21.41
2023-04-17T16:33:13.351Z,21.40
2023-04-17T16:35:41.950Z,21.42
2023-04-17T16:38:10.470Z,21.44
2023-04-17T16:40:39.012Z,21.43
2023-04-17T16:43:07.707Z,21.41
2023-04-17T16:45:38.268Z,21.35
2023-04-17T16:48:09.224Z,21.27
2023-04-17T16:50:37.932Z,21.20
2023-04-17T16:53:06.386Z,21.09
2023-04-17T16:55:36.998Z,20.97
2023-04-17T16:58:05.532Z,20.89
2023-04-17T17:00:33.950Z,20.80
2023-04-17T17:03:04.047Z,20.76
2023-04-17T17:05:32.670Z,20.71
2023-04-17T17:08:01.539Z,20.70
2023-04-17T17:10:30.029Z,20.69
2023-04-17T17:12:58.459Z,20.68
2023-04-17T17:15:26.833Z,20.65
2023-04-17T17:17:55.355Z,20.64
2023-04-17T17:20:25.632Z,20.60
2023-04-17T17:22:54.124Z,20.56
2023-04-17T17:25:23.103Z,20.51
2023-04-17T17:27:51.763Z,20.45
2023-04-17T17:30:20.461Z,20.38
2023-04-17T17:32:48.962Z,20.28
2023-04-17T17:35:18.092Z,20.19
2023-04-17T17:37:48.014Z,20.09
2023-04-17T17:40:17.722Z,20.00
2023-04-17T17:42:46.771Z,19.93
2023-04-17T17:45:15.872Z,19.87
2023-04-17T17:47:44.411Z,19.84
2023-04-17T17:50:13.649Z,19.81
2023-04-17T17:52:42.765Z,19.78
2023-04-17T17:55:16.978Z,19.74
2023-04-17T17:57:49.310Z,19.72
2023-04-17T18:00:18.906Z,19.68
2023-04-17T18:02:48.417Z,19.64
2023-04-17T18:05:17.828Z,19.60
2023-04-17T18:07:46.266Z,19.54
2023-04-17T18:10:18.570Z,19.51
2023-04-17T18:12:47.521Z,19.49
2023-04-17T18:15:17.623Z,19.48
2023-04-17T18:17:46.756Z,19.47
2023-04-17T18:20:16.883Z,19.46
2023-04-17T18:22:46.101Z,19.46
2023-04-17T18:25:17.060Z,19.43
2023-04-17T18:27:50.516Z,19.45
2023-04-17T18:30:19.689Z,19.44
2023-04-17T18:32:48.919Z,19.44
2023-04-17T18:35:19.678Z,19.40
2023-04-17T18:37:48.341Z,19.35
2023-04-17T18:40:21.881Z,19.30
2023-04-17T18:42:51.164Z,19.23
2023-04-17T18:45:22.582Z,19.17
2023-04-17T18:47:51.600Z,19.10
2023-04-17T18:50:20.785Z,19.01
2023-04-17T18:52:51.278Z,18.93
2023-04-17T18:55:21.732Z,18.87
2023-04-17T18:57:50.998Z,18.80
2023-04-17T19:00:21.653Z,18.73
2023-04-17T19:02:50.425Z,18.66
2023-04-17T19:05:21.993Z,18.57
2023-04-17T19:07:51.597Z,18.49
2023-04-17T19:10:22.529Z,18.41
2023-04-17T19:12:52.140Z,18.33
2023-04-17T19:15:22.151Z,18.26
2023-04-17T19:17:52.890Z,18.20
2023-04-17T19:20:23.757Z,18.13
2023-04-17T19:22:53.279Z,18.06
2023-04-17T19:25:24.353Z,18.00
2023-04-17T19:27:54.037Z,17.94
2023-04-17T19:30:23.339Z,17.88
2023-04-17T19:32:52.494Z,17.85
2023-04-17T19:35:21.806Z,17.80
2023-04-17T19:37:55.388Z,17.75
2023-04-17T19:40:26.670Z,17.71
2023-04-17T19:43:01.460Z,17.66
2023-04-17T19:45:34.057Z,17.63
2023-04-17T19:48:04.784Z,17.60
2023-04-17T19:50:34.237Z,17.58
2023-04-17T19:53:05.368Z,17.54
2023-04-17T19:55:36.024Z,17.52
2023-04-17T19:58:05.357Z,17.49
2023-04-17T20:00:35.073Z,17.48
2023-04-17T20:03:03.753Z,17.47
2023-04-17T20:05:32.590Z,17.44
2023-04-17T20:08:02.943Z,17.44
2023-04-17T20:10:31.792Z,17.43
2023-04-17T20:13:02.510Z,17.41
2023-04-17T20:15:32.538Z,17.39
2023-04-17T20:18:08.851Z,17.38
2023-04-17T20:20:39.722Z,17.39
2023-04-17T20:23:08.238Z,17.39
2023-04-17T20:25:37.074Z,17.39
2023-04-17T20:28:07.613Z,17.38
2023-04-17T20:30:36.010Z,17.37
2023-04-17T20:33:05.614Z,17.36
2023-04-17T20:35:35.206Z,17.34
2023-04-17T20:38:03.845Z,17.34
2023-04-17T20:40:33.038Z,17.32
2023-04-17T20:43:01.736Z,17.32
2023-04-17T20:45:32.126Z,17.32
2023-04-17T20:48:02.445Z,17.31
2023-04-17T20:50:31.564Z,17.31
2023-04-17T20:52:59.988Z,17.30
2023-04-17T20:55:28.787Z,17.31
2023-04-17T20:57:57.235Z,17.31
2023-04-17T21:00:26.190Z,17.31
2023-04-17T21:02:56.018Z,17.33
2023-04-17T21:05:24.544Z,17.37
2023-04-17T21:07:53.062Z,17.42
2023-04-17T21:10:21.821Z,17.43
2023-04-17T21:12:50.363Z,17.49
2023-04-17T21:15:18.964Z,17.51
2023-04-17T21:17:48.018Z,17.54
2023-04-17T21:20:17.811Z,17.57
2023-04-17T21:22:46.217Z,17.60
2023-04-17T21:25:14.575Z,17.60
2023-04-17T21:27:43.862Z,17.61
2023-04-17T21:30:12.846Z,17.61
2023-04-17T21:32:42.308Z,17.61
2023-04-17T21:35:11.424Z,17.59
2023-04-17T21:37:41.151Z,17.58
2023-04-17T21:40:11.012Z,17.57
2023-04-17T21:42:39.552Z,17.58
2023-04-17T21:45:09.563Z,17.58
2023-04-17T21:47:38.131Z,17.58
2023-04-17T21:50:08.522Z,17.59
2023-04-17T21:52:36.908Z,17.61
2023-04-17T21:55:08.451Z,17.64
2023-04-17T21:57:36.982Z,17.67
2023-04-17T22:00:09.475Z,17.68
2023-04-17T22:02:37.839Z,17.69
2023-04-17T22:05:07.416Z,17.71
2023-04-17T22:07:44.027Z,17.72
2023-04-17T22:10:24.530Z,17.75
2023-04-17T22:12:52.958Z,17.77
2023-04-17T22:15:21.476Z,17.77
2023-04-17T22:17:49.864Z,17.79
2023-04-17T22:20:18.250Z,17.78
2023-04-17T22:22:47.952Z,17.80
2023-04-17T22:25:17.125Z,17.80
2023-04-17T22:27:46.797Z,17.81
2023-04-17T22:30:15.242Z,17.80
2023-04-17T22:32:43.695Z,17.81
2023-04-17T22:35:12.141Z,17.81
2023-04-17T22:37:40.411Z,17.81
2023-04-17T22:40:10.632Z,17.80
2023-04-17T22:42:38.938Z,17.79
2023-04-17T22:45:10.056Z,17.77
2023-04-17T22:47:38.495Z,17.77
2023-04-17T22:50:10.444Z,17.76
2023-04-17T22:52:38.792Z,17.76
2023-04-17T22:55:08.193Z,17.74
2023-04-17T22:57:36.670Z,17.72
2023-04-17T23:00:08.931Z,17.71
2023-04-17T23:02:38.919Z,17.72
2023-04-17T23:05:08.964Z,17.72
2023-04-17T23:07:37.416Z,17.72
2023-04-17T23:10:06.982Z,17.70
2023-04-17T23:12:35.395Z,17.72
2023-04-17T23:15:04.063Z,17.72
2023-04-17T23:17:33.185Z,17.72
2023-04-17T23:20:03.932Z,17.72
2023-04-17T23:22:32.319Z,17.71
2023-04-17T23:25:00.722Z,17.70
2023-04-17T23:27:29.418Z,17.69
2023-04-17T23:29:59.804Z,17.68
2023-04-17T23:32:28.336Z,17.68
2023-04-17T23:34:56.706Z,17.66
2023-04-17T23:37:26.679Z,17.67
2023-04-17T23:39:54.990Z,17.68
2023-04-17T23:42:23.360Z,17.67
2023-04-17T23:44:52.092Z,17.66
2023-04-17T23:47:20.565Z,17.66
2023-04-17T23:49:48.897Z,17.66
2023-04-17T23:52:19.000Z,17.65
2023-04-17T23:54:48.796Z,17.64
2023-04-17T23:57:18.334Z,17.63
2023-04-17T23:59:46.656Z,17.64
